sensor_id;sensor_type;location;lat;lon;timestamp;P1;durP1;ratioP1;P2;durP2;ratioP2
37485;SDS011;23341;50.296;18.960;2023-09-12T00:02:35;22.20;;;18.67;;
37485;SDS011;23341;50.296;18.960;2023-09-12T00:07:39;22.70;;;19.13;;
37485;SDS011;23341;50.296;18.960;2023-09-12T00:12:45;24.27;;;19.08;;
37485;SDS011;23341;50.296;18.960;2023-09-12T00:17:49;21.38;;;18.27;;
37485;SDS011;23341;50.296;18.960;2023-09-12T00:22:54;24.55;;;21.10;;
37485;SDS011;23341;50.296;18.960;2023-09-12T00:28:00;23.98;;;19.08;;
37485;SDS011;23341;50.296;18.960;2023-09-12T00:33:05;25.48;;;19.48;;
37485;SDS011;23341;50.296;18.960;2023-09-12T00:38:09;26.33;;;19.92;;
37485;SDS011;23341;50.296;18.960;2023-09-12T00:43:15;31.00;;;22.27;;
37485;SDS011;23341;50.296;18.960;2023-09-12T00:48:20;26.15;;;20.60;;
37485;SDS011;23341;50.296;18.960;2023-09-12T00:53:25;28.38;;;21.63;;
37485;SDS011;23341;50.296;18.960;2023-09-12T00:58:31;29.95;;;22.98;;
37485;SDS011;23341;50.296;18.960;2023-09-12T01:03:36;35.45;;;25.77;;
37485;SDS011;23341;50.296;18.960;2023-09-12T01:08:40;43.38;;;31.55;;
37485;SDS011;23341;50.296;18.960;2023-09-12T01:13:46;47.63;;;32.97;;
37485;SDS011;23341;50.296;18.960;2023-09-12T01:18:50;36.00;;;25.42;;
37485;SDS011;23341;50.296;18.960;2023-09-12T01:23:58;29.35;;;24.35;;
37485;SDS011;23341;50.296;18.960;2023-09-12T01:29:13;32.25;;;24.05;;
37485;SDS011;23341;50.296;18.960;2023-09-12T01:34:19;35.80;;;25.30;;
37485;SDS011;23341;50.296;18.960;2023-09-12T01:39:23;29.83;;;24.42;;
37485;SDS011;23341;50.296;18.960;2023-09-12T01:44:30;36.05;;;24.17;;
37485;SDS011;23341;50.296;18.960;2023-09-12T01:49:37;30.13;;;23.83;;
37485;SDS011;23341;50.296;18.960;2023-09-12T01:54:45;31.63;;;23.80;;
37485;SDS011;23341;50.296;18.960;2023-09-12T01:59:55;32.03;;;24.50;;
37485;SDS011;23341;50.296;18.960;2023-09-12T02:05:02;36.70;;;25.25;;
37485;SDS011;23341;50.296;18.960;2023-09-12T02:10:12;31.45;;;26.30;;
37485;SDS011;23341;50.296;18.960;2023-09-12T02:15:18;37.13;;;24.90;;
37485;SDS011;23341;50.296;18.960;2023-09-12T02:20:23;35.50;;;25.83;;
37485;SDS011;23341;50.296;18.960;2023-09-12T02:25:27;33.38;;;25.40;;
37485;SDS011;23341;50.296;18.960;2023-09-12T02:30:33;32.60;;;24.40;;
37485;SDS011;23341;50.296;18.960;2023-09-12T02:35:38;30.40;;;24.60;;
37485;SDS011;23341;50.296;18.960;2023-09-12T02:40:42;28.75;;;23.38;;
37485;SDS011;23341;50.296;18.960;2023-09-12T02:45:48;33.42;;;22.75;;
37485;SDS011;23341;50.296;18.960;2023-09-12T02:50:52;33.00;;;23.92;;
37485;SDS011;23341;50.296;18.960;2023-09-12T02:55:57;33.33;;;23.52;;
37485;SDS011;23341;50.296;18.960;2023-09-12T03:01:02;34.63;;;23.42;;
37485;SDS011;23341;50.296;18.960;2023-09-12T03:06:08;31.10;;;24.70;;
37485;SDS011;23341;50.296;18.960;2023-09-12T03:11:13;31.77;;;23.30;;
37485;SDS011;23341;50.296;18.960;2023-09-12T03:16:19;28.70;;;24.38;;
37485;SDS011;23341;50.296;18.960;2023-09-12T03:21:23;29.77;;;22.95;;
37485;SDS011;23341;50.296;18.960;2023-09-12T03:26:28;33.63;;;24.08;;
37485;SDS011;23341;50.296;18.960;2023-09-12T03:31:33;35.42;;;25.05;;
37485;SDS011;23341;50.296;18.960;2023-09-12T03:36:39;29.10;;;23.42;;
37485;SDS011;23341;50.296;18.960;2023-09-12T03:41:43;29.38;;;23.85;;
37485;SDS011;23341;50.296;18.960;2023-09-12T03:46:49;30.25;;;23.92;;
37485;SDS011;23341;50.296;18.960;2023-09-12T03:51:54;35.83;;;24.65;;
37485;SDS011;23341;50.296;18.960;2023-09-12T03:56:58;40.63;;;25.45;;
37485;SDS011;23341;50.296;18.960;2023-09-12T04:02:04;35.58;;;26.85;;
37485;SDS011;23341;50.296;18.960;2023-09-12T04:07:08;31.25;;;26.48;;
37485;SDS011;23341;50.296;18.960;2023-09-12T04:12:13;35.20;;;25.90;;
37485;SDS011;23341;50.296;18.960;2023-09-12T04:17:18;32.58;;;25.65;;
37485;SDS011;23341;50.296;18.960;2023-09-12T04:22:23;32.28;;;24.30;;
37485;SDS011;23341;50.296;18.960;2023-09-12T04:27:27;32.78;;;25.83;;
37485;SDS011;23341;50.296;18.960;2023-09-12T04:32:33;34.88;;;25.52;;
37485;SDS011;23341;50.296;18.960;2023-09-12T04:37:38;32.92;;;25.15;;
37485;SDS011;23341;50.296;18.960;2023-09-12T04:42:43;33.72;;;24.33;;
37485;SDS011;23341;50.296;18.960;2023-09-12T04:47:49;34.38;;;24.02;;
37485;SDS011;23341;50.296;18.960;2023-09-12T04:52:53;31.90;;;23.92;;
37485;SDS011;23341;50.296;18.960;2023-09-12T04:57:58;31.88;;;24.77;;
37485;SDS011;23341;50.296;18.960;2023-09-12T05:03:04;29.60;;;25.02;;
37485;SDS011;23341;50.296;18.960;2023-09-12T05:14:03;37.08;;;24.85;;
37485;SDS011;23341;50.296;18.960;2023-09-12T05:19:09;31.70;;;24.65;;
37485;SDS011;23341;50.296;18.960;2023-09-12T05:24:14;30.42;;;24.98;;
37485;SDS011;23341;50.296;18.960;2023-09-12T05:29:19;34.30;;;23.50;;
37485;SDS011;23341;50.296;18.960;2023-09-12T05:34:24;32.38;;;22.42;;
37485;SDS011;23341;50.296;18.960;2023-09-12T05:39:29;33.80;;;23.02;;
37485;SDS011;23341;50.296;18.960;2023-09-12T05:44:33;37.25;;;25.10;;
37485;SDS011;23341;50.296;18.960;2023-09-12T05:49:39;30.75;;;22.92;;
37485;SDS011;23341;50.296;18.960;2023-09-12T05:54:44;31.00;;;21.33;;
37485;SDS011;23341;50.296;18.960;2023-09-12T05:59:49;28.55;;;21.80;;
37485;SDS011;23341;50.296;18.960;2023-09-12T06:04:55;32.65;;;22.90;;
37485;SDS011;23341;50.296;18.960;2023-09-12T06:09:59;33.33;;;20.65;;
37485;SDS011;23341;50.296;18.960;2023-09-12T06:15:04;30.60;;;21.58;;
37485;SDS011;23341;50.296;18.960;2023-09-12T06:20:11;24.05;;;17.58;;
37485;SDS011;23341;50.296;18.960;2023-09-12T06:25:15;20.27;;;17.55;;
37485;SDS011;23341;50.296;18.960;2023-09-12T06:30:20;25.48;;;15.73;;
37485;SDS011;23341;50.296;18.960;2023-09-12T06:35:25;23.13;;;16.27;;
37485;SDS011;23341;50.296;18.960;2023-09-12T06:40:30;21.95;;;15.38;;
37485;SDS011;23341;50.296;18.960;2023-09-12T06:45:34;21.27;;;13.77;;
37485;SDS011;23341;50.296;18.960;2023-09-12T06:50:41;18.63;;;12.07;;
37485;SDS011;23341;50.296;18.960;2023-09-12T06:55:52;14.40;;;11.55;;
37485;SDS011;23341;50.296;18.960;2023-09-12T07:01:01;14.45;;;11.90;;
37485;SDS011;23341;50.296;18.960;2023-09-12T07:06:08;19.27;;;12.98;;
37485;SDS011;23341;50.296;18.960;2023-09-12T07:11:12;16.15;;;10.10;;
37485;SDS011;23341;50.296;18.960;2023-09-12T07:16:16;14.15;;;10.60;;
37485;SDS011;23341;50.296;18.960;2023-09-12T07:21:24;11.23;;;9.63;;
37485;SDS011;23341;50.296;18.960;2023-09-12T07:26:28;20.90;;;11.30;;
37485;SDS011;23341;50.296;18.960;2023-09-12T07:31:33;13.80;;;11.20;;
37485;SDS011;23341;50.296;18.960;2023-09-12T07:36:38;19.30;;;11.77;;
37485;SDS011;23341;50.296;18.960;2023-09-12T07:41:43;10.18;;;8.95;;
37485;SDS011;23341;50.296;18.960;2023-09-12T07:46:47;10.95;;;9.85;;
37485;SDS011;23341;50.296;18.960;2023-09-12T07:51:53;13.88;;;9.70;;
37485;SDS011;23341;50.296;18.960;2023-09-12T07:56:59;11.23;;;8.47;;
37485;SDS011;23341;50.296;18.960;2023-09-12T08:02:04;11.98;;;8.75;;
37485;SDS011;23341;50.296;18.960;2023-09-12T08:07:10;14.07;;;8.38;;
37485;SDS011;23341;50.296;18.960;2023-09-12T08:12:15;9.75;;;8.18;;
37485;SDS011;23341;50.296;18.960;2023-09-12T08:17:19;11.27;;;8.95;;
37485;SDS011;23341;50.296;18.960;2023-09-12T08:22:26;10.65;;;8.60;;
37485;SDS011;23341;50.296;18.960;2023-09-12T08:27:31;13.23;;;8.83;;
37485;SDS011;23341;50.296;18.960;2023-09-12T08:32:36;9.60;;;8.65;;
37485;SDS011;23341;50.296;18.960;2023-09-12T08:37:43;11.95;;;9.60;;
37485;SDS011;23341;50.296;18.960;2023-09-12T08:42:47;12.23;;;9.52;;
37485;SDS011;23341;50.296;18.960;2023-09-12T08:47:56;9.00;;;8.10;;
37485;SDS011;23341;50.296;18.960;2023-09-12T08:53:04;8.13;;;7.38;;
37485;SDS011;23341;50.296;18.960;2023-09-12T08:58:10;8.80;;;7.78;;
37485;SDS011;23341;50.296;18.960;2023-09-12T09:03:14;7.82;;;7.13;;
37485;SDS011;23341;50.296;18.960;2023-09-12T09:08:21;10.93;;;7.85;;
37485;SDS011;23341;50.296;18.960;2023-09-12T09:13:27;10.88;;;8.40;;
37485;SDS011;23341;50.296;18.960;2023-09-12T09:18:33;11.77;;;7.95;;
37485;SDS011;23341;50.296;18.960;2023-09-12T09:23:55;10.43;;;8.63;;
37485;SDS011;23341;50.296;18.960;2023-09-12T09:29:05;10.13;;;9.13;;
37485;SDS011;23341;50.296;18.960;2023-09-12T09:34:12;9.98;;;8.98;;
37485;SDS011;23341;50.296;18.960;2023-09-12T09:39:20;13.02;;;10.32;;
37485;SDS011;23341;50.296;18.960;2023-09-12T09:44:26;17.88;;;9.27;;
37485;SDS011;23341;50.296;18.960;2023-09-12T09:49:33;14.15;;;9.40;;
37485;SDS011;23341;50.296;18.960;2023-09-12T09:54:39;13.00;;;9.80;;
37485;SDS011;23341;50.296;18.960;2023-09-12T09:59:48;12.82;;;8.95;;
37485;SDS011;23341;50.296;18.960;2023-09-12T10:04:54;15.15;;;9.35;;
37485;SDS011;23341;50.296;18.960;2023-09-12T10:10:04;14.85;;;9.73;;
37485;SDS011;23341;50.296;18.960;2023-09-12T10:15:09;13.45;;;8.90;;
37485;SDS011;23341;50.296;18.960;2023-09-12T10:20:19;12.02;;;9.15;;
37485;SDS011;23341;50.296;18.960;2023-09-12T10:25:28;11.80;;;9.38;;
37485;SDS011;23341;50.296;18.960;2023-09-12T10:30:33;13.90;;;9.52;;
37485;SDS011;23341;50.296;18.960;2023-09-12T10:35:39;8.10;;;7.28;;
37485;SDS011;23341;50.296;18.960;2023-09-12T10:40:45;9.70;;;7.45;;
37485;SDS011;23341;50.296;18.960;2023-09-12T10:45:52;8.85;;;7.28;;
37485;SDS011;23341;50.296;18.960;2023-09-12T10:50:57;16.65;;;8.00;;
37485;SDS011;23341;50.296;18.960;2023-09-12T10:56:16;13.02;;;7.40;;
37485;SDS011;23341;50.296;18.960;2023-09-12T11:01:21;8.90;;;7.10;;
37485;SDS011;23341;50.296;18.960;2023-09-12T11:06:28;7.72;;;6.60;;
37485;SDS011;23341;50.296;18.960;2023-09-12T11:11:35;7.75;;;6.95;;
37485;SDS011;23341;50.296;18.960;2023-09-12T11:16:39;12.15;;;7.97;;
37485;SDS011;23341;50.296;18.960;2023-09-12T11:21:43;11.52;;;7.00;;
37485;SDS011;23341;50.296;18.960;2023-09-12T11:26:54;9.75;;;6.68;;
37485;SDS011;23341;50.296;18.960;2023-09-12T11:32:00;9.18;;;6.75;;
37485;SDS011;23341;50.296;18.960;2023-09-12T11:37:05;12.27;;;6.82;;
37485;SDS011;23341;50.296;18.960;2023-09-12T11:42:11;7.85;;;6.85;;
37485;SDS011;23341;50.296;18.960;2023-09-12T11:47:16;7.57;;;6.85;;
37485;SDS011;23341;50.296;18.960;2023-09-12T11:52:20;10.98;;;7.53;;
37485;SDS011;23341;50.296;18.960;2023-09-12T11:57:28;8.35;;;7.05;;
37485;SDS011;23341;50.296;18.960;2023-09-12T12:02:34;7.68;;;7.03;;
37485;SDS011;23341;50.296;18.960;2023-09-12T12:07:39;18.27;;;7.30;;
37485;SDS011;23341;50.296;18.960;2023-09-12T12:12:47;10.57;;;7.45;;
37485;SDS011;23341;50.296;18.960;2023-09-12T12:17:57;19.45;;;7.90;;
37485;SDS011;23341;50.296;18.960;2023-09-12T12:23:01;9.40;;;6.60;;
37485;SDS011;23341;50.296;18.960;2023-09-12T12:28:07;11.75;;;7.78;;
37485;SDS011;23341;50.296;18.960;2023-09-12T12:33:12;8.13;;;7.32;;
37485;SDS011;23341;50.296;18.960;2023-09-12T12:38:37;9.32;;;6.97;;
37485;SDS011;23341;50.296;18.960;2023-09-12T12:43:59;8.27;;;7.50;;
37485;SDS011;23341;50.296;18.960;2023-09-12T12:49:07;10.30;;;8.05;;
37485;SDS011;23341;50.296;18.960;2023-09-12T12:54:21;8.20;;;7.30;;
37485;SDS011;23341;50.296;18.960;2023-09-12T12:59:30;12.65;;;7.63;;
37485;SDS011;23341;50.296;18.960;2023-09-12T13:04:38;7.60;;;7.00;;
37485;SDS011;23341;50.296;18.960;2023-09-12T13:09:43;11.55;;;6.90;;
37485;SDS011;23341;50.296;18.960;2023-09-12T13:14:52;14.10;;;7.55;;
37485;SDS011;23341;50.296;18.960;2023-09-12T13:19:56;14.55;;;8.05;;
37485;SDS011;23341;50.296;18.960;2023-09-12T13:25:00;13.52;;;7.03;;
37485;SDS011;23341;50.296;18.960;2023-09-12T13:30:07;18.50;;;6.38;;
37485;SDS011;23341;50.296;18.960;2023-09-12T13:35:13;8.20;;;6.95;;
37485;SDS011;23341;50.296;18.960;2023-09-12T13:40:18;16.85;;;6.93;;
37485;SDS011;23341;50.296;18.960;2023-09-12T13:45:25;9.75;;;6.82;;
37485;SDS011;23341;50.296;18.960;2023-09-12T13:50:29;7.35;;;6.15;;
37485;SDS011;23341;50.296;18.960;2023-09-12T13:55:34;9.65;;;6.88;;
37485;SDS011;23341;50.296;18.960;2023-09-12T14:00:40;7.95;;;6.40;;
37485;SDS011;23341;50.296;18.960;2023-09-12T14:05:46;7.33;;;6.63;;
37485;SDS011;23341;50.296;18.960;2023-09-12T14:10:53;8.90;;;6.50;;
37485;SDS011;23341;50.296;18.960;2023-09-12T14:15:59;7.00;;;6.47;;
37485;SDS011;23341;50.296;18.960;2023-09-12T14:21:04;8.00;;;6.93;;
37485;SDS011;23341;50.296;18.960;2023-09-12T14:26:09;10.77;;;6.88;;
37485;SDS011;23341;50.296;18.960;2023-09-12T14:31:16;9.40;;;6.75;;
37485;SDS011;23341;50.296;18.960;2023-09-12T14:36:20;6.40;;;5.90;;
37485;SDS011;23341;50.296;18.960;2023-09-12T14:41:24;7.95;;;7.18;;
37485;SDS011;23341;50.296;18.960;2023-09-12T14:46:30;7.88;;;6.30;;
37485;SDS011;23341;50.296;18.960;2023-09-12T14:51:35;7.00;;;6.35;;
37485;SDS011;23341;50.296;18.960;2023-09-12T14:56:39;7.88;;;7.07;;
37485;SDS011;23341;50.296;18.960;2023-09-12T15:01:45;7.93;;;7.00;;
37485;SDS011;23341;50.296;18.960;2023-09-12T15:06:52;7.40;;;6.38;;
37485;SDS011;23341;50.296;18.960;2023-09-12T15:11:56;7.68;;;6.93;;
37485;SDS011;23341;50.296;18.960;2023-09-12T15:17:02;7.68;;;6.97;;
37485;SDS011;23341;50.296;18.960;2023-09-12T15:22:06;7.53;;;6.70;;
37485;SDS011;23341;50.296;18.960;2023-09-12T15:27:13;8.45;;;7.07;;
37485;SDS011;23341;50.296;18.960;2023-09-12T15:32:18;7.65;;;6.95;;
37485;SDS011;23341;50.296;18.960;2023-09-12T15:37:23;8.60;;;7.53;;
37485;SDS011;23341;50.296;18.960;2023-09-12T15:42:27;9.73;;;7.63;;
37485;SDS011;23341;50.296;18.960;2023-09-12T15:47:40;9.43;;;7.82;;
37485;SDS011;23341;50.296;18.960;2023-09-12T15:52:45;10.00;;;8.57;;
37485;SDS011;23341;50.296;18.960;2023-09-12T15:57:49;10.98;;;7.28;;
37485;SDS011;23341;50.296;18.960;2023-09-12T16:02:55;11.10;;;8.18;;
37485;SDS011;23341;50.296;18.960;2023-09-12T16:07:59;9.25;;;8.32;;
37485;SDS011;23341;50.296;18.960;2023-09-12T16:13:04;10.35;;;8.63;;
37485;SDS011;23341;50.296;18.960;2023-09-12T16:18:10;9.80;;;8.43;;
37485;SDS011;23341;50.296;18.960;2023-09-12T16:23:14;13.73;;;8.48;;
37485;SDS011;23341;50.296;18.960;2023-09-12T16:28:21;10.75;;;8.13;;
37485;SDS011;23341;50.296;18.960;2023-09-12T16:33:27;8.75;;;7.28;;
37485;SDS011;23341;50.296;18.960;2023-09-12T16:38:35;10.55;;;7.57;;
37485;SDS011;23341;50.296;18.960;2023-09-12T16:43:40;9.60;;;8.18;;
37485;SDS011;23341;50.296;18.960;2023-09-12T16:48:46;10.93;;;8.27;;
37485;SDS011;23341;50.296;18.960;2023-09-12T16:53:50;13.18;;;7.95;;
37485;SDS011;23341;50.296;18.960;2023-09-12T16:58:55;10.98;;;9.68;;
37485;SDS011;23341;50.296;18.960;2023-09-12T17:04:01;10.10;;;8.45;;
37485;SDS011;23341;50.296;18.960;2023-09-12T17:09:07;12.93;;;9.20;;
37485;SDS011;23341;50.296;18.960;2023-09-12T17:14:12;16.13;;;10.07;;
37485;SDS011;23341;50.296;18.960;2023-09-12T17:19:18;11.98;;;10.15;;
37485;SDS011;23341;50.296;18.960;2023-09-12T17:24:23;14.30;;;10.18;;
37485;SDS011;23341;50.296;18.960;2023-09-12T17:29:27;15.40;;;10.02;;
37485;SDS011;23341;50.296;18.960;2023-09-12T17:34:38;13.73;;;9.98;;
37485;SDS011;23341;50.296;18.960;2023-09-12T17:39:43;14.93;;;10.70;;
37485;SDS011;23341;50.296;18.960;2023-09-12T17:44:48;15.38;;;10.65;;
37485;SDS011;23341;50.296;18.960;2023-09-12T17:49:54;13.85;;;9.52;;
37485;SDS011;23341;50.296;18.960;2023-09-12T17:54:58;13.55;;;10.00;;
37485;SDS011;23341;50.296;18.960;2023-09-12T18:00:03;16.15;;;11.40;;
37485;SDS011;23341;50.296;18.960;2023-09-12T18:05:14;23.02;;;11.55;;
37485;SDS011;23341;50.296;18.960;2023-09-12T18:10:21;16.70;;;10.23;;
37485;SDS011;23341;50.296;18.960;2023-09-12T18:15:29;12.15;;;9.32;;
37485;SDS011;23341;50.296;18.960;2023-09-12T18:20:35;14.02;;;10.43;;
37485;SDS011;23341;50.296;18.960;2023-09-12T18:25:39;12.65;;;9.63;;
37485;SDS011;23341;50.296;18.960;2023-09-12T18:30:43;13.43;;;10.77;;
37485;SDS011;23341;50.296;18.960;2023-09-12T18:35:49;15.60;;;11.45;;
37485;SDS011;23341;50.296;18.960;2023-09-12T18:40:55;15.60;;;10.65;;
37485;SDS011;23341;50.296;18.960;2023-09-12T18:45:59;13.20;;;10.30;;
37485;SDS011;23341;50.296;18.960;2023-09-12T18:51:06;17.10;;;12.52;;
37485;SDS011;23341;50.296;18.960;2023-09-12T18:56:10;12.90;;;11.20;;
37485;SDS011;23341;50.296;18.960;2023-09-12T19:01:14;18.08;;;11.73;;
37485;SDS011;23341;50.296;18.960;2023-09-12T19:06:20;13.93;;;11.45;;
37485;SDS011;23341;50.296;18.960;2023-09-12T19:11:25;13.00;;;11.48;;
37485;SDS011;23341;50.296;18.960;2023-09-12T19:16:29;22.63;;;12.07;;
37485;SDS011;23341;50.296;18.960;2023-09-12T19:21:35;12.95;;;11.63;;
37485;SDS011;23341;50.296;18.960;2023-09-12T19:26:40;15.43;;;12.63;;
37485;SDS011;23341;50.296;18.960;2023-09-12T19:31:48;14.38;;;11.20;;
37485;SDS011;23341;50.296;18.960;2023-09-12T19:36:54;21.13;;;12.23;;
37485;SDS011;23341;50.296;18.960;2023-09-12T19:41:58;14.80;;;12.70;;
37485;SDS011;23341;50.296;18.960;2023-09-12T19:47:03;14.23;;;12.68;;
37485;SDS011;23341;50.296;18.960;2023-09-12T19:52:09;19.13;;;12.57;;
37485;SDS011;23341;50.296;18.960;2023-09-12T19:57:15;18.60;;;14.50;;
37485;SDS011;23341;50.296;18.960;2023-09-12T20:02:19;16.95;;;13.45;;
37485;SDS011;23341;50.296;18.960;2023-09-12T20:07:25;20.65;;;13.73;;
37485;SDS011;23341;50.296;18.960;2023-09-12T20:12:29;18.27;;;13.65;;
37485;SDS011;23341;50.296;18.960;2023-09-12T20:17:33;20.48;;;13.88;;
37485;SDS011;23341;50.296;18.960;2023-09-12T20:22:39;19.70;;;13.48;;
37485;SDS011;23341;50.296;18.960;2023-09-12T20:27:43;21.25;;;15.00;;
37485;SDS011;23341;50.296;18.960;2023-09-12T20:32:48;20.67;;;13.65;;
37485;SDS011;23341;50.296;18.960;2023-09-12T20:38:01;22.70;;;14.45;;
37485;SDS011;23341;50.296;18.960;2023-09-12T20:43:07;17.08;;;14.25;;
37485;SDS011;23341;50.296;18.960;2023-09-12T20:48:11;18.25;;;13.68;;
37485;SDS011;23341;50.296;18.960;2023-09-12T20:53:19;17.15;;;12.75;;
37485;SDS011;23341;50.296;18.960;2023-09-12T20:58:23;19.25;;;13.18;;
37485;SDS011;23341;50.296;18.960;2023-09-12T21:03:28;16.00;;;14.25;;
37485;SDS011;23341;50.296;18.960;2023-09-12T21:08:34;20.13;;;14.27;;
37485;SDS011;23341;50.296;18.960;2023-09-12T21:13:38;15.43;;;13.77;;
37485;SDS011;23341;50.296;18.960;2023-09-12T21:18:43;15.70;;;13.25;;
37485;SDS011;23341;50.296;18.960;2023-09-12T21:23:49;16.05;;;13.82;;
37485;SDS011;23341;50.296;18.960;2023-09-12T21:28:53;16.05;;;14.32;;
37485;SDS011;23341;50.296;18.960;2023-09-12T21:33:57;28.77;;;15.90;;
37485;SDS011;23341;50.296;18.960;2023-09-12T21:39:03;17.00;;;14.63;;
37485;SDS011;23341;50.296;18.960;2023-09-12T21:44:07;22.63;;;16.20;;
37485;SDS011;23341;50.296;18.960;2023-09-12T21:49:12;24.40;;;17.48;;
37485;SDS011;23341;50.296;18.960;2023-09-12T21:54:17;21.25;;;16.50;;
37485;SDS011;23341;50.296;18.960;2023-09-12T21:59:22;18.05;;;16.15;;
37485;SDS011;23341;50.296;18.960;2023-09-12T22:04:26;16.90;;;15.10;;
37485;SDS011;23341;50.296;18.960;2023-09-12T22:09:31;25.70;;;16.73;;
37485;SDS011;23341;50.296;18.960;2023-09-12T22:14:36;23.73;;;17.52;;
37485;SDS011;23341;50.296;18.960;2023-09-12T22:19:40;24.40;;;17.52;;
37485;SDS011;23341;50.296;18.960;2023-09-12T22:24:47;25.77;;;18.13;;
37485;SDS011;23341;50.296;18.960;2023-09-12T22:29:51;25.42;;;18.15;;
37485;SDS011;23341;50.296;18.960;2023-09-12T22:34:56;26.15;;;18.63;;
37485;SDS011;23341;50.296;18.960;2023-09-12T22:40:02;23.25;;;18.95;;
37485;SDS011;23341;50.296;18.960;2023-09-12T22:45:08;22.58;;;18.27;;
37485;SDS011;23341;50.296;18.960;2023-09-12T22:50:13;24.35;;;17.83;;
37485;SDS011;23341;50.296;18.960;2023-09-12T22:55:19;22.73;;;17.55;;
37485;SDS011;23341;50.296;18.960;2023-09-12T23:00:23;23.48;;;18.45;;
37485;SDS011;23341;50.296;18.960;2023-09-12T23:05:29;25.48;;;18.90;;
37485;SDS011;23341;50.296;18.960;2023-09-12T23:10:34;27.00;;;20.45;;
37485;SDS011;23341;50.296;18.960;2023-09-12T23:15:39;31.85;;;19.23;;
37485;SDS011;23341;50.296;18.960;2023-09-12T23:20:44;23.88;;;18.27;;
37485;SDS011;23341;50.296;18.960;2023-09-12T23:25:53;21.38;;;18.33;;
37485;SDS011;23341;50.296;18.960;2023-09-12T23:30:59;23.35;;;19.85;;
37485;SDS011;23341;50.296;18.960;2023-09-12T23:36:03;25.08;;;19.55;;
37485;SDS011;23341;50.296;18.960;2023-09-12T23:41:09;27.38;;;20.63;;
37485;SDS011;23341;50.296;18.960;2023-09-12T23:46:15;26.40;;;20.52;;
37485;SDS011;23341;50.296;18.960;2023-09-12T23:51:19;32.97;;;22.65;;
37485;SDS011;23341;50.296;18.960;2023-09-12T23:56:25;26.58;;;19.17;;
